sensor_id;sensor_type;location;lat;lon;timestamp;pressure;altitude;pressure_sealevel;temperature;humidity
76046;BME280;64741;41.730;44.788;2023-06-26T00:02:36;987.2;;;27.3;40.5
76046;BME280;64741;41.730;44.788;2023-06-26T00:07:34;987.2;;;27.3;40.4
76046;BME280;64741;41.730;44.788;2023-06-26T00:12:44;987.1;;;27.3;40.4
76046;BME280;64741;41.730;44.788;2023-06-26T00:17:36;987.1;;;27.3;40.4
76046;BME280;64741;41.730;44.788;2023-06-26T00:22:36;987.1;;;27.3;40.5
76046;BME280;64741;41.730;44.788;2023-06-26T00:27:34;987.1;;;27.3;40.5
76046;BME280;64741;41.730;44.788;2023-06-26T00:32:36;987;;;27.3;40.4
76046;BME280;64741;41.730;44.788;2023-06-26T00:37:44;987;;;27.3;40.4
76046;BME280;64741;41.730;44.788;2023-06-26T00:42:36;987;;;27.3;40.5
76046;BME280;64741;41.730;44.788;2023-06-26T00:47:44;987;;;27.3;40.4
76046;BME280;64741;41.730;44.788;2023-06-26T00:52:36;987;;;27.3;40.5
76046;BME280;64741;41.730;44.788;2023-06-26T00:57:44;986.9;;;27.2;40.6
76046;BME280;64741;41.730;44.788;2023-06-26T01:02:34;986.9;;;27.2;40.8
76046;BME280;64741;41.730;44.788;2023-06-26T01:07:36;986.8;;;27.2;40.8
76046;BME280;64741;41.730;44.788;2023-06-26T01:12:36;986.8;;;27.2;40.8
76046;BME280;64741;41.730;44.788;2023-06-26T01:17:34;986.8;;;27.2;40.7
76046;BME280;64741;41.730;44.788;2023-06-26T01:22:37;986.8;;;27.2;40.8
76046;BME280;64741;41.730;44.788;2023-06-26T01:27:38;986.8;;;27.2;40.8
76046;BME280;64741;41.730;44.788;2023-06-26T01:32:46;986.8;;;27.2;40.8
76046;BME280;64741;41.730;44.788;2023-06-26T01:37:20;986.8;;;27.2;40.9
76046;BME280;64741;41.730;44.788;2023-06-26T01:42:46;986.8;;;27.2;41
76046;BME280;64741;41.730;44.788;2023-06-26T01:47:48;986.8;;;27.2;41.1
76046;BME280;64741;41.730;44.788;2023-06-26T01:52:23;986.8;;;27.1;41.1
76046;BME280;64741;41.730;44.788;2023-06-26T01:57:38;986.8;;;27.2;41
76046;BME280;64741;41.730;44.788;2023-06-26T02:02:39;986.8;;;27.2;41
76046;BME280;64741;41.730;44.788;2023-06-26T02:07:46;986.8;;;27.2;41.1
76046;BME280;64741;41.730;44.788;2023-06-26T02:12:39;986.8;;;27.2;41.1
76046;BME280;64741;41.730;44.788;2023-06-26T02:17:38;986.9;;;27.2;41.2
76046;BME280;64741;41.730;44.788;2023-06-26T02:22:46;986.8;;;27.2;41.2
76046;BME280;64741;41.730;44.788;2023-06-26T02:27:46;986.8;;;27.2;41.3
76046;BME280;64741;41.730;44.788;2023-06-26T02:32:38;986.8;;;27.2;41.3
76046;BME280;64741;41.730;44.788;2023-06-26T02:37:38;986.8;;;27.2;41.4
76046;BME280;64741;41.730;44.788;2023-06-26T02:42:38;986.7;;;27.2;41.5
76046;BME280;64741;41.730;44.788;2023-06-26T02:47:38;986.7;;;27.2;41.6
76046;BME280;64741;41.730;44.788;2023-06-26T02:52:38;986.7;;;27.1;41.6
76046;BME280;64741;41.730;44.788;2023-06-26T02:57:36;986.6;;;27.1;41.6
76046;BME280;64741;41.730;44.788;2023-06-26T03:02:38;986.6;;;27.1;41.5
76046;BME280;64741;41.730;44.788;2023-06-26T03:07:38;986.6;;;27.2;41.5
76046;BME280;64741;41.730;44.788;2023-06-26T03:12:36;986.5;;;27.2;41.5
76046;BME280;64741;41.730;44.788;2023-06-26T03:17:46;986.5;;;27.2;41.5
76046;BME280;64741;41.730;44.788;2023-06-26T03:22:12;986.4;;;27.2;41.6
76046;BME280;64741;41.730;44.788;2023-06-26T03:27:46;986.4;;;27.2;41.7
76046;BME280;64741;41.730;44.788;2023-06-26T03:32:36;986.4;;;27.2;41.8
76046;BME280;64741;41.730;44.788;2023-06-26T03:37:38;986.3;;;27.2;41.8
76046;BME280;64741;41.730;44.788;2023-06-26T03:42:44;986.3;;;27.1;42
76046;BME280;64741;41.730;44.788;2023-06-26T03:47:36;986.3;;;27;42
76046;BME280;64741;41.730;44.788;2023-06-26T03:52:38;986.3;;;27;42
76046;BME280;64741;41.730;44.788;2023-06-26T03:57:38;986.3;;;27;42
76046;BME280;64741;41.730;44.788;2023-06-26T04:02:38;986.3;;;27.1;42
76046;BME280;64741;41.730;44.788;2023-06-26T04:07:36;986.3;;;27.1;42
76046;BME280;64741;41.730;44.788;2023-06-26T04:12:38;986.2;;;27.1;42.1
76046;BME280;64741;41.730;44.788;2023-06-26T04:17:46;986.2;;;27.1;42.1
76046;BME280;64741;41.730;44.788;2023-06-26T04:22:46;986.1;;;27.1;42.1
76046;BME280;64741;41.730;44.788;2023-06-26T04:27:38;986.1;;;27.1;42.1
76046;BME280;64741;41.730;44.788;2023-06-26T04:32:36;986.1;;;27.1;42.2
76046;BME280;64741;41.730;44.788;2023-06-26T04:37:46;986;;;27.2;42.3
76046;BME280;64741;41.730;44.788;2023-06-26T04:42:38;986;;;27.2;42.3
76046;BME280;64741;41.730;44.788;2023-06-26T04:47:38;985.9;;;27.2;42.3
76046;BME280;64741;41.730;44.788;2023-06-26T04:52:34;985.9;;;27.2;42.3
76046;BME280;64741;41.730;44.788;2023-06-26T04:57:38;985.9;;;27.2;42.3
76046;BME280;64741;41.730;44.788;2023-06-26T05:02:46;985.9;;;27.2;42.3
76046;BME280;64741;41.730;44.788;2023-06-26T05:07:38;985.9;;;27.2;42.3
76046;BME280;64741;41.730;44.788;2023-06-26T05:12:44;985.8;;;27.3;42.3
76046;BME280;64741;41.730;44.788;2023-06-26T05:17:36;985.8;;;27.3;42.2
76046;BME280;64741;41.730;44.788;2023-06-26T05:22:42;985.8;;;27.3;42.2
76046;BME280;64741;41.730;44.788;2023-06-26T05:27:34;985.8;;;27.3;42.1
76046;BME280;64741;41.730;44.788;2023-06-26T05:32:38;985.8;;;27.3;42.1
76046;BME280;64741;41.730;44.788;2023-06-26T05:37:36;985.7;;;27.3;42
76046;BME280;64741;41.730;44.788;2023-06-26T05:42:34;985.6;;;27.3;41.8
76046;BME280;64741;41.730;44.788;2023-06-26T05:47:38;985.5;;;27.3;41.6
76046;BME280;64741;41.730;44.788;2023-06-26T05:52:38;985.5;;;27.3;41.5
76046;BME280;64741;41.730;44.788;2023-06-26T05:57:44;985.4;;;27.3;41.4
76046;BME280;64741;41.730;44.788;2023-06-26T06:02:36;985.4;;;27.3;41.3
76046;BME280;64741;41.730;44.788;2023-06-26T06:07:44;985.4;;;27.3;41.1
76046;BME280;64741;41.730;44.788;2023-06-26T06:12:44;985.3;;;27.4;41.1
76046;BME280;64741;41.730;44.788;2023-06-26T06:17:32;985.3;;;27.4;41.1
76046;BME280;64741;41.730;44.788;2023-06-26T06:22:36;985.2;;;27.4;41.1
76046;BME280;64741;41.730;44.788;2023-06-26T06:27:36;985.2;;;27.4;41
76046;BME280;64741;41.730;44.788;2023-06-26T06:32:44;985.2;;;27.4;41
76046;BME280;64741;41.730;44.788;2023-06-26T06:37:36;985.1;;;27.4;40.8
76046;BME280;64741;41.730;44.788;2023-06-26T06:42:36;985.1;;;27.4;40.6
76046;BME280;64741;41.730;44.788;2023-06-26T06:47:42;985;;;27.5;40.6
76046;BME280;64741;41.730;44.788;2023-06-26T06:52:26;985;;;27.5;40.5
76046;BME280;64741;41.730;44.788;2023-06-26T06:57:37;985;;;27.5;40.5
76046;BME280;64741;41.730;44.788;2023-06-26T07:02:36;985;;;27.5;40
76046;BME280;64741;41.730;44.788;2023-06-26T07:07:36;984.9;;;27.5;39.9
76046;BME280;64741;41.730;44.788;2023-06-26T07:12:36;984.9;;;27.6;39.7
76046;BME280;64741;41.730;44.788;2023-06-26T07:17:38;984.7;;;27.6;39.8
76046;BME280;64741;41.730;44.788;2023-06-26T07:22:34;984.7;;;27.6;39.8
76046;BME280;64741;41.730;44.788;2023-06-26T07:27:22;984.6;;;27.6;39.7
76046;BME280;64741;41.730;44.788;2023-06-26T07:32:36;984.6;;;27.6;39.3
76046;BME280;64741;41.730;44.788;2023-06-26T07:37:34;984.5;;;27.6;39.2
76046;BME280;64741;41.730;44.788;2023-06-26T07:42:44;984.4;;;27.6;39.2
76046;BME280;64741;41.730;44.788;2023-06-26T07:47:37;984.4;;;27.6;39.1
76046;BME280;64741;41.730;44.788;2023-06-26T07:52:44;984.3;;;27.6;38.9
76046;BME280;64741;41.730;44.788;2023-06-26T07:57:34;984.3;;;27.7;38.6
76046;BME280;64741;41.730;44.788;2023-06-26T08:02:34;984.2;;;27.7;38.7
76046;BME280;64741;41.730;44.788;2023-06-26T08:07:34;984.2;;;27.7;38.6
76046;BME280;64741;41.730;44.788;2023-06-26T08:12:34;984.1;;;27.7;38.5
76046;BME280;64741;41.730;44.788;2023-06-26T08:17:38;984.1;;;27.7;38.4
76046;BME280;64741;41.730;44.788;2023-06-26T08:22:39;984.1;;;27.8;37.9
76046;BME280;64741;41.730;44.788;2023-06-26T08:27:42;984;;;27.8;37.4
76046;BME280;64741;41.730;44.788;2023-06-26T08:32:34;984;;;27.9;36.2
76046;BME280;64741;41.730;44.788;2023-06-26T08:37:36;984;;;27.9;36.4
76046;BME280;64741;41.730;44.788;2023-06-26T08:42:40;984;;;28;36.6
76046;BME280;64741;41.730;44.788;2023-06-26T08:47:28;983.9;;;28;36.5
76046;BME280;64741;41.730;44.788;2023-06-26T08:52:35;983.9;;;28;36.4
76046;BME280;64741;41.730;44.788;2023-06-26T08:57:34;983.9;;;28;36.4
76046;BME280;64741;41.730;44.788;2023-06-26T09:02:34;983.8;;;28;36.6
76046;BME280;64741;41.730;44.788;2023-06-26T09:07:32;983.7;;;28;36.7
76046;BME280;64741;41.730;44.788;2023-06-26T09:12:36;983.6;;;28;37.2
76046;BME280;64741;41.730;44.788;2023-06-26T09:17:29;983.6;;;28.1;38.3
76046;BME280;64741;41.730;44.788;2023-06-26T09:22:41;983.5;;;28.1;38.5
76046;BME280;64741;41.730;44.788;2023-06-26T09:27:35;983.5;;;28.1;39.7
76046;BME280;64741;41.730;44.788;2023-06-26T09:32:30;983.5;;;28.1;39.8
76046;BME280;64741;41.730;44.788;2023-06-26T09:37:43;983.5;;;28.1;40
76046;BME280;64741;41.730;44.788;2023-06-26T09:42:34;983.4;;;28.2;40.6
76046;BME280;64741;41.730;44.788;2023-06-26T09:47:36;983.3;;;28.2;39.8
76046;BME280;64741;41.730;44.788;2023-06-26T09:52:32;983.3;;;28.2;39.8
76046;BME280;64741;41.730;44.788;2023-06-26T09:57:34;983.2;;;28.2;39.4
76046;BME280;64741;41.730;44.788;2023-06-26T10:02:40;983.2;;;28.1;38.6
76046;BME280;64741;41.730;44.788;2023-06-26T10:07:34;983.1;;;28.1;37.7
76046;BME280;64741;41.730;44.788;2023-06-26T10:12:40;983;;;28.1;37.9
76046;BME280;64741;41.730;44.788;2023-06-26T10:17:35;983;;;28.1;38.3
76046;BME280;64741;41.730;44.788;2023-06-26T10:22:44;982.9;;;28.1;38.3
76046;BME280;64741;41.730;44.788;2023-06-26T10:27:25;982.9;;;28.1;38
76046;BME280;64741;41.730;44.788;2023-06-26T10:32:36;982.8;;;28.1;36.7
76046;BME280;64741;41.730;44.788;2023-06-26T10:37:42;982.8;;;28.1;36
76046;BME280;64741;41.730;44.788;2023-06-26T10:42:34;982.7;;;28.1;36.3
76046;BME280;64741;41.730;44.788;2023-06-26T10:47:36;982.6;;;28.2;36.6
76046;BME280;64741;41.730;44.788;2023-06-26T10:52:36;982.6;;;28.2;37
76046;BME280;64741;41.730;44.788;2023-06-26T10:57:44;982.5;;;28.2;36.9
76046;BME280;64741;41.730;44.788;2023-06-26T11:02:47;982.4;;;28.2;36.8
76046;BME280;64741;41.730;44.788;2023-06-26T11:07:57;982.4;;;28.2;36.8
76046;BME280;64741;41.730;44.788;2023-06-26T11:12:43;982.4;;;28.2;37
76046;BME280;64741;41.730;44.788;2023-06-26T11:17:30;982.3;;;28.2;36.8
76046;BME280;64741;41.730;44.788;2023-06-26T11:22:35;982.2;;;28.2;36.4
76046;BME280;64741;41.730;44.788;2023-06-26T11:27:37;982.2;;;28.2;36.5
76046;BME280;64741;41.730;44.788;2023-06-26T11:32:42;982.1;;;28.2;36.5
76046;BME280;64741;41.730;44.788;2023-06-26T11:37:33;982.1;;;28.2;36.6
76046;BME280;64741;41.730;44.788;2023-06-26T11:42:38;982.1;;;28.2;36.7
76046;BME280;64741;41.730;44.788;2023-06-26T11:47:45;982.1;;;28.2;36.7
76046;BME280;64741;41.730;44.788;2023-06-26T11:52:41;982;;;28.2;36.8
76046;BME280;64741;41.730;44.788;2023-06-26T11:57:34;981.9;;;28.2;36.9
76046;BME280;64741;41.730;44.788;2023-06-26T12:02:19;981.9;;;28.2;36.8
76046;BME280;64741;41.730;44.788;2023-06-26T12:07:46;981.8;;;28.2;37
76046;BME280;64741;41.730;44.788;2023-06-26T12:12:37;981.7;;;28.2;37.2
76046;BME280;64741;41.730;44.788;2023-06-26T12:17:45;981.7;;;28.2;37.3
76046;BME280;64741;41.730;44.788;2023-06-26T12:22:35;981.7;;;28.2;37.1
76046;BME280;64741;41.730;44.788;2023-06-26T12:27:36;981.6;;;28.2;37.1
76046;BME280;64741;41.730;44.788;2023-06-26T12:32:35;981.5;;;28.2;37.2
76046;BME280;64741;41.730;44.788;2023-06-26T12:37:36;981.5;;;28.2;37.4
76046;BME280;64741;41.730;44.788;2023-06-26T12:42:39;981.5;;;28.2;37.4
76046;BME280;64741;41.730;44.788;2023-06-26T12:47:39;981.5;;;28.2;37.1
76046;BME280;64741;41.730;44.788;2023-06-26T12:52:47;981.4;;;28.2;37
76046;BME280;64741;41.730;44.788;2023-06-26T12:57:37;981.3;;;28.2;36.9
76046;BME280;64741;41.730;44.788;2023-06-26T13:02:39;981.3;;;28.3;37
76046;BME280;64741;41.730;44.788;2023-06-26T13:07:47;981.3;;;28.3;37.2
76046;BME280;64741;41.730;44.788;2023-06-26T13:12:37;981.2;;;28.3;37.3
76046;BME280;64741;41.730;44.788;2023-06-26T13:17:37;981.2;;;28.3;37.3
76046;BME280;64741;41.730;44.788;2023-06-26T13:22:39;981.1;;;28.3;37.4
76046;BME280;64741;41.730;44.788;2023-06-26T13:27:39;981.1;;;28.3;37.4
76046;BME280;64741;41.730;44.788;2023-06-26T13:32:37;981;;;28.3;37.2
76046;BME280;64741;41.730;44.788;2023-06-26T13:37:39;980.9;;;28.3;37.1
76046;BME280;64741;41.730;44.788;2023-06-26T13:42:47;980.9;;;28.3;37.1
76046;BME280;64741;41.730;44.788;2023-06-26T13:47:47;980.9;;;28.3;37
76046;BME280;64741;41.730;44.788;2023-06-26T13:52:33;980.8;;;28.3;36.7
76046;BME280;64741;41.730;44.788;2023-06-26T13:57:37;980.7;;;28.3;36.7
76046;BME280;64741;41.730;44.788;2023-06-26T14:02:47;980.7;;;28.3;36.7
76046;BME280;64741;41.730;44.788;2023-06-26T14:07:39;980.7;;;28.3;36.8
76046;BME280;64741;41.730;44.788;2023-06-26T14:12:39;980.7;;;28.4;37
76046;BME280;64741;41.730;44.788;2023-06-26T14:17:37;980.7;;;28.4;37
76046;BME280;64741;41.730;44.788;2023-06-26T14:22:17;980.7;;;28.4;37.1
76046;BME280;64741;41.730;44.788;2023-06-26T14:27:47;980.7;;;28.4;37.2
76046;BME280;64741;41.730;44.788;2023-06-26T14:32:39;980.7;;;28.4;37.2
76046;BME280;64741;41.730;44.788;2023-06-26T14:37:48;980.7;;;28.4;37.4
76046;BME280;64741;41.730;44.788;2023-06-26T14:42:39;980.7;;;28.4;37.5
76046;BME280;64741;41.730;44.788;2023-06-26T14:47:47;980.7;;;28.4;37.5
76046;BME280;64741;41.730;44.788;2023-06-26T14:52:37;980.7;;;28.4;37.5
76046;BME280;64741;41.730;44.788;2023-06-26T14:57:39;980.7;;;28.4;37.6
76046;BME280;64741;41.730;44.788;2023-06-26T15:02:39;980.7;;;28.4;37.9
76046;BME280;64741;41.730;44.788;2023-06-26T15:07:23;980.7;;;28.4;38.3
76046;BME280;64741;41.730;44.788;2023-06-26T15:12:39;980.7;;;28.4;38.1
76046;BME280;64741;41.730;44.788;2023-06-26T15:17:39;980.7;;;28.4;38.1
76046;BME280;64741;41.730;44.788;2023-06-26T15:22:45;980.7;;;28.4;38.2
76046;BME280;64741;41.730;44.788;2023-06-26T15:27:39;980.7;;;28.4;37.8
76046;BME280;64741;41.730;44.788;2023-06-26T15:32:47;980.7;;;28.4;37.7
76046;BME280;64741;41.730;44.788;2023-06-26T15:37:47;980.6;;;28.4;37.6
76046;BME280;64741;41.730;44.788;2023-06-26T15:42:44;980.7;;;28.3;37.4
76046;BME280;64741;41.730;44.788;2023-06-26T15:47:39;980.7;;;28.4;37.1
76046;BME280;64741;41.730;44.788;2023-06-26T15:52:39;980.7;;;28.4;37.3
76046;BME280;64741;41.730;44.788;2023-06-26T15:57:47;980.7;;;28.4;37.6
76046;BME280;64741;41.730;44.788;2023-06-26T16:02:39;980.7;;;28.4;37.8
76046;BME280;64741;41.730;44.788;2023-06-26T16:07:39;980.9;;;28.4;37.9
76046;BME280;64741;41.730;44.788;2023-06-26T16:12:37;980.9;;;28.4;38
76046;BME280;64741;41.730;44.788;2023-06-26T16:17:39;980.9;;;28.4;38
76046;BME280;64741;41.730;44.788;2023-06-26T16:22:39;980.8;;;28.4;38
76046;BME280;64741;41.730;44.788;2023-06-26T16:27:35;980.8;;;28.4;38.1
76046;BME280;64741;41.730;44.788;2023-06-26T16:32:47;980.8;;;28.4;38
76046;BME280;64741;41.730;44.788;2023-06-26T16:37:39;980.9;;;28.4;37.9
76046;BME280;64741;41.730;44.788;2023-06-26T16:42:47;980.9;;;28.4;38
76046;BME280;64741;41.730;44.788;2023-06-26T16:47:37;981;;;28.4;38.2
76046;BME280;64741;41.730;44.788;2023-06-26T16:52:37;981.1;;;28.4;38.3
76046;BME280;64741;41.730;44.788;2023-06-26T16:57:21;981.2;;;28.4;38.4
76046;BME280;64741;41.730;44.788;2023-06-26T17:02:37;981.2;;;28.4;38.5
76046;BME280;64741;41.730;44.788;2023-06-26T17:07:39;981.1;;;28.4;38.6
76046;BME280;64741;41.730;44.788;2023-06-26T17:12:39;981.2;;;28.4;38.6
76046;BME280;64741;41.730;44.788;2023-06-26T17:17:31;981.3;;;28.4;38.6
76046;BME280;64741;41.730;44.788;2023-06-26T17:22:35;981.3;;;28.4;38.6
76046;BME280;64741;41.730;44.788;2023-06-26T17:27:39;981.4;;;28.4;38.6
76046;BME280;64741;41.730;44.788;2023-06-26T17:32:47;981.5;;;28.4;38.6
76046;BME280;64741;41.730;44.788;2023-06-26T17:37:39;981.6;;;28.4;38.6
76046;BME280;64741;41.730;44.788;2023-06-26T17:42:39;981.6;;;28.4;38.5
76046;BME280;64741;41.730;44.788;2023-06-26T17:47:41;981.7;;;28.3;38.5
76046;BME280;64741;41.730;44.788;2023-06-26T17:52:41;981.6;;;28.3;38.5
76046;BME280;64741;41.730;44.788;2023-06-26T17:57:39;981.7;;;28.3;38.8
76046;BME280;64741;41.730;44.788;2023-06-26T18:02:39;981.9;;;28.3;39
76046;BME280;64741;41.730;44.788;2023-06-26T18:07:45;982;;;28.3;38.9
76046;BME280;64741;41.730;44.788;2023-06-26T18:12:45;981.9;;;28.3;39
76046;BME280;64741;41.730;44.788;2023-06-26T18:17:41;981.9;;;28.3;39
76046;BME280;64741;41.730;44.788;2023-06-26T18:22:39;981.9;;;28.3;39
76046;BME280;64741;41.730;44.788;2023-06-26T18:27:31;981.9;;;28.3;38.9
76046;BME280;64741;41.730;44.788;2023-06-26T18:32:41;981.9;;;28.3;39
76046;BME280;64741;41.730;44.788;2023-06-26T18:37:41;981.9;;;28.3;39.1
76046;BME280;64741;41.730;44.788;2023-06-26T18:42:39;981.9;;;28.3;39.2
76046;BME280;64741;41.730;44.788;2023-06-26T18:47:39;981.8;;;28.3;39.2
76046;BME280;64741;41.730;44.788;2023-06-26T18:52:45;981.8;;;28.3;39.3
76046;BME280;64741;41.730;44.788;2023-06-26T18:57:39;981.8;;;28.3;39.4
76046;BME280;64741;41.730;44.788;2023-06-26T19:02:43;981.8;;;28.3;39.5
76046;BME280;64741;41.730;44.788;2023-06-26T19:07:39;981.8;;;28.3;39.5
76046;BME280;64741;41.730;44.788;2023-06-26T19:12:47;981.8;;;28.3;39.6
76046;BME280;64741;41.730;44.788;2023-06-26T19:17:39;981.8;;;28.3;39.6
76046;BME280;64741;41.730;44.788;2023-06-26T19:22:41;981.9;;;28.3;39.6
76046;BME280;64741;41.730;44.788;2023-06-26T19:27:39;981.8;;;28.3;39.5
76046;BME280;64741;41.730;44.788;2023-06-26T19:32:39;981.8;;;28.3;39.5
76046;BME280;64741;41.730;44.788;2023-06-26T19:37:27;981.9;;;28.2;39.6
76046;BME280;64741;41.730;44.788;2023-06-26T19:42:39;982;;;28.2;39.5
76046;BME280;64741;41.730;44.788;2023-06-26T19:47:47;982;;;28.2;39.2
76046;BME280;64741;41.730;44.788;2023-06-26T19:52:41;982;;;28.2;39.2
76046;BME280;64741;41.730;44.788;2023-06-26T19:57:47;982;;;28.2;39.4
76046;BME280;64741;41.730;44.788;2023-06-26T20:02:47;981.9;;;28.2;39.4
76046;BME280;64741;41.730;44.788;2023-06-26T20:07:39;982;;;28.2;39.3
76046;BME280;64741;41.730;44.788;2023-06-26T20:12:41;982.1;;;28.2;39.3
76046;BME280;64741;41.730;44.788;2023-06-26T20:17:41;982.1;;;28.2;39.2
76046;BME280;64741;41.730;44.788;2023-06-26T20:22:39;982;;;28.2;39
76046;BME280;64741;41.730;44.788;2023-06-26T20:27:41;982.1;;;28.2;39.4
76046;BME280;64741;41.730;44.788;2023-06-26T20:32:41;982.2;;;28.2;39.4
76046;BME280;64741;41.730;44.788;2023-06-26T20:37:37;982.3;;;28.2;39.4
76046;BME280;64741;41.730;44.788;2023-06-26T20:42:39;982.2;;;28.1;39.4
76046;BME280;64741;41.730;44.788;2023-06-26T20:47:41;982.1;;;28.2;39.4
76046;BME280;64741;41.730;44.788;2023-06-26T20:52:23;982.1;;;28.2;39.5
76046;BME280;64741;41.730;44.788;2023-06-26T20:57:41;982.2;;;28.2;39.7
76046;BME280;64741;41.730;44.788;2023-06-26T21:02:39;982.1;;;28.2;39.8
76046;BME280;64741;41.730;44.788;2023-06-26T21:07:45;982.1;;;28.2;39.9
76046;BME280;64741;41.730;44.788;2023-06-26T21:12:37;982.1;;;28.2;40.2
76046;BME280;64741;41.730;44.788;2023-06-26T21:17:37;982;;;28.2;40.2
76046;BME280;64741;41.730;44.788;2023-06-26T21:22:35;982;;;28.2;40.3
76046;BME280;64741;41.730;44.788;2023-06-26T21:27:37;982;;;28.3;40.7
76046;BME280;64741;41.730;44.788;2023-06-26T21:32:41;982;;;28.3;41.1
76046;BME280;64741;41.730;44.788;2023-06-26T21:37:39;982;;;28.3;41.9
76046;BME280;64741;41.730;44.788;2023-06-26T21:42:45;982;;;28.3;41.9
76046;BME280;64741;41.730;44.788;2023-06-26T21:47:37;982;;;28.3;42.1
76046;BME280;64741;41.730;44.788;2023-06-26T21:52:37;982.1;;;28.3;42.6
76046;BME280;64741;41.730;44.788;2023-06-26T21:57:47;982.2;;;28.3;42.5
76046;BME280;64741;41.730;44.788;2023-06-26T22:02:39;982.2;;;28.3;42.5
76046;BME280;64741;41.730;44.788;2023-06-26T22:07:41;982.2;;;28.3;42.8
76046;BME280;64741;41.730;44.788;2023-06-26T22:12:39;982.3;;;28.3;43.1
76046;BME280;64741;41.730;44.788;2023-06-26T22:17:46;982.3;;;28.3;43.6
76046;BME280;64741;41.730;44.788;2023-06-26T22:22:37;982.2;;;28.2;43.8
76046;BME280;64741;41.730;44.788;2023-06-26T22:27:42;982.3;;;28.2;43.6
76046;BME280;64741;41.730;44.788;2023-06-26T22:32:47;982.4;;;28.2;43.7
76046;BME280;64741;41.730;44.788;2023-06-26T22:37:47;982.4;;;28.2;43.7
76046;BME280;64741;41.730;44.788;2023-06-26T22:42:41;982.3;;;28.2;44
76046;BME280;64741;41.730;44.788;2023-06-26T22:47:25;982.2;;;28.2;44
76046;BME280;64741;41.730;44.788;2023-06-26T22:52:47;982;;;28.2;44.1
76046;BME280;64741;41.730;44.788;2023-06-26T22:57:41;981.9;;;28.3;44.2
76046;BME280;64741;41.730;44.788;2023-06-26T23:02:41;981.8;;;28.3;44.1
76046;BME280;64741;41.730;44.788;2023-06-26T23:07:37;981.7;;;28.3;44.1
76046;BME280;64741;41.730;44.788;2023-06-26T23:12:41;981.9;;;28.3;44
76046;BME280;64741;41.730;44.788;2023-06-26T23:17:47;982.1;;;28.3;44.4
76046;BME280;64741;41.730;44.788;2023-06-26T23:22:41;982.3;;;28.3;44.3
76046;BME280;64741;41.730;44.788;2023-06-26T23:27:47;982.3;;;28.2;44.5
76046;BME280;64741;41.730;44.788;2023-06-26T23:32:39;982.2;;;28.3;44.3
76046;BME280;64741;41.730;44.788;2023-06-26T23:37:47;982.3;;;28.3;44.4
76046;BME280;64741;41.730;44.788;2023-06-26T23:42:39;982.5;;;28.2;44.4
76046;BME280;64741;41.730;44.788;2023-06-26T23:47:31;982.5;;;28.2;44.4
76046;BME280;64741;41.730;44.788;2023-06-26T23:52:41;982.6;;;28.2;44.4
76046;BME280;64741;41.730;44.788;2023-06-26T23:57:39;982.7;;;28.2;44.4
